sensor_id;sensor_type;location;lat;lon;timestamp;pressure;altitude;pressure_sealevel;temperature;humidity
4346;BME280;2186;49.866;7.986;2023-03-01T00:01:47;101372.25;;;1.09;78.90
4346;BME280;2186;49.866;7.986;2023-03-01T00:04:14;101379.28;;;1.10;78.92
4346;BME280;2186;49.866;7.986;2023-03-01T00:06:42;101384.19;;;0.98;80.00
4346;BME280;2186;49.866;7.986;2023-03-01T00:09:09;101369.50;;;1.04;79.14
4346;BME280;2186;49.866;7.986;2023-03-01T00:11:35;101381.06;;;1.11;79.40
4346;BME280;2186;49.866;7.986;2023-03-01T00:14:03;101386.66;;;0.93;79.57
4346;BME280;2186;49.866;7.986;2023-03-01T00:16:33;101377.56;;;1.10;79.52
4346;BME280;2186;49.866;7.986;2023-03-01T00:19:01;101378.94;;;0.98;79.67
4346;BME280;2186;49.866;7.986;2023-03-01T00:21:28;101377.91;;;0.93;79.56
4346;BME280;2186;49.866;7.986;2023-03-01T00:23:56;101374.41;;;0.92;80.49
4346;BME280;2186;49.866;7.986;2023-03-01T00:26:24;101370.94;;;0.93;79.18
4346;BME280;2186;49.866;7.986;2023-03-01T00:28:51;101374.94;;;1.10;79.64
4346;BME280;2186;49.866;7.986;2023-03-01T00:31:20;101375.00;;;1.13;79.60
4346;BME280;2186;49.866;7.986;2023-03-01T00:33:47;101378.28;;;1.06;79.33
4346;BME280;2186;49.866;7.986;2023-03-01T00:36:15;101376.41;;;1.01;79.22
4346;BME280;2186;49.866;7.986;2023-03-01T00:38:43;101374.06;;;1.10;78.90
4346;BME280;2186;49.866;7.986;2023-03-01T00:41:13;101378.28;;;1.06;79.19
4346;BME280;2186;49.866;7.986;2023-03-01T00:43:40;101370.69;;;1.15;79.45
4346;BME280;2186;49.866;7.986;2023-03-01T00:46:09;101370.09;;;0.94;79.73
4346;BME280;2186;49.866;7.986;2023-03-01T00:48:36;101369.94;;;0.88;79.41
4346;BME280;2186;49.866;7.986;2023-03-01T00:51:08;101362.16;;;0.91;80.54
4346;BME280;2186;49.866;7.986;2023-03-01T00:53:36;101360.50;;;0.95;80.44
4346;BME280;2186;49.866;7.986;2023-03-01T00:56:03;101361.34;;;0.94;80.63
4346;BME280;2186;49.866;7.986;2023-03-01T00:58:30;101362.13;;;0.89;79.85
4346;BME280;2186;49.866;7.986;2023-03-01T01:00:56;101357.44;;;1.09;79.49
4346;BME280;2186;49.866;7.986;2023-03-01T01:03:23;101355.84;;;1.14;80.09
4346;BME280;2186;49.866;7.986;2023-03-01T01:05:51;101357.19;;;1.00;80.10
4346;BME280;2186;49.866;7.986;2023-03-01T01:08:19;101349.00;;;0.88;80.69
4346;BME280;2186;49.866;7.986;2023-03-01T01:10:46;101348.78;;;0.80;80.99
4346;BME280;2186;49.866;7.986;2023-03-01T01:13:14;101349.47;;;0.73;80.59
4346;BME280;2186;49.866;7.986;2023-03-01T01:15:41;101356.47;;;0.74;80.36
4346;BME280;2186;49.866;7.986;2023-03-01T01:18:07;101346.81;;;0.72;81.02
4346;BME280;2186;49.866;7.986;2023-03-01T01:20:35;101337.19;;;0.71;81.74
4346;BME280;2186;49.866;7.986;2023-03-01T01:23:01;101329.09;;;0.63;82.95
4346;BME280;2186;49.866;7.986;2023-03-01T01:25:28;101331.91;;;0.69;82.45
4346;BME280;2186;49.866;7.986;2023-03-01T01:27:54;101330.00;;;0.64;82.04
4346;BME280;2186;49.866;7.986;2023-03-01T01:30:21;101326.41;;;0.60;82.02
4346;BME280;2186;49.866;7.986;2023-03-01T01:32:47;101316.91;;;0.64;82.91
4346;BME280;2186;49.866;7.986;2023-03-01T01:35:13;101324.16;;;0.72;82.39
4346;BME280;2186;49.866;7.986;2023-03-01T01:37:40;101321.59;;;0.75;82.05
4346;BME280;2186;49.866;7.986;2023-03-01T01:40:07;101303.25;;;0.74;81.64
4346;BME280;2186;49.866;7.986;2023-03-01T01:42:33;101306.69;;;0.71;82.34
4346;BME280;2186;49.866;7.986;2023-03-01T01:45:39;101309.28;;;0.71;82.59
4346;BME280;2186;49.866;7.986;2023-03-01T01:48:10;101311.91;;;0.71;82.03
4346;BME280;2186;49.866;7.986;2023-03-01T01:50:40;101311.03;;;0.71;82.31
4346;BME280;2186;49.866;7.986;2023-03-01T01:53:11;101310.59;;;0.87;81.08
4346;BME280;2186;49.866;7.986;2023-03-01T01:55:42;101306.94;;;0.82;81.19
4346;BME280;2186;49.866;7.986;2023-03-01T01:58:14;101305.94;;;0.77;82.51
4346;BME280;2186;49.866;7.986;2023-03-01T02:00:41;101315.38;;;0.70;82.08
4346;BME280;2186;49.866;7.986;2023-03-01T02:03:11;101303.44;;;0.81;82.05
4346;BME280;2186;49.866;7.986;2023-03-01T02:05:53;101300.25;;;0.60;82.30
4346;BME280;2186;49.866;7.986;2023-03-01T02:08:23;101291.50;;;0.58;83.25
4346;BME280;2186;49.866;7.986;2023-03-01T02:10:51;101283.44;;;0.52;82.77
4346;BME280;2186;49.866;7.986;2023-03-01T02:13:18;101283.28;;;0.46;83.99
4346;BME280;2186;49.866;7.986;2023-03-01T02:15:45;101288.41;;;0.41;84.52
4346;BME280;2186;49.866;7.986;2023-03-01T02:18:14;101288.25;;;0.37;84.25
4346;BME280;2186;49.866;7.986;2023-03-01T02:20:57;101285.50;;;0.32;83.95
4346;BME280;2186;49.866;7.986;2023-03-01T02:23:25;101281.06;;;0.28;84.96
4346;BME280;2186;49.866;7.986;2023-03-01T02:26:16;101281.25;;;0.36;85.03
4346;BME280;2186;49.866;7.986;2023-03-01T02:28:45;101283.56;;;0.55;83.60
4346;BME280;2186;49.866;7.986;2023-03-01T02:31:17;101283.41;;;0.82;83.08
4346;BME280;2186;49.866;7.986;2023-03-01T02:34:16;101278.94;;;0.78;81.93
4346;BME280;2186;49.866;7.986;2023-03-01T02:36:53;101282.66;;;0.54;83.49
4346;BME280;2186;49.866;7.986;2023-03-01T02:39:28;101283.22;;;0.74;82.13
4346;BME280;2186;49.866;7.986;2023-03-01T02:41:57;101276.44;;;0.51;83.26
4346;BME280;2186;49.866;7.986;2023-03-01T02:44:25;101278.09;;;0.47;83.68
4346;BME280;2186;49.866;7.986;2023-03-01T02:46:53;101267.16;;;0.31;84.14
4346;BME280;2186;49.866;7.986;2023-03-01T02:49:26;101262.69;;;0.26;84.55
4346;BME280;2186;49.866;7.986;2023-03-01T02:55:03;101265.47;;;0.33;84.29
4346;BME280;2186;49.866;7.986;2023-03-01T02:57:32;101262.56;;;0.22;85.31
4346;BME280;2186;49.866;7.986;2023-03-01T03:00:02;101263.25;;;0.46;85.00
4346;BME280;2186;49.866;7.986;2023-03-01T03:02:34;101255.88;;;0.63;83.72
4346;BME280;2186;49.866;7.986;2023-03-01T03:05:16;101255.56;;;0.52;83.71
4346;BME280;2186;49.866;7.986;2023-03-01T03:07:46;101249.72;;;0.61;84.18
4346;BME280;2186;49.866;7.986;2023-03-01T03:10:25;101241.41;;;0.77;82.49
4346;BME280;2186;49.866;7.986;2023-03-01T03:12:57;101239.19;;;0.58;83.88
4346;BME280;2186;49.866;7.986;2023-03-01T03:15:26;101236.38;;;0.52;84.48
4346;BME280;2186;49.866;7.986;2023-03-01T03:17:53;101226.31;;;0.34;85.41
4346;BME280;2186;49.866;7.986;2023-03-01T03:20:22;101230.09;;;0.14;85.13
4346;BME280;2186;49.866;7.986;2023-03-01T03:22:51;101230.88;;;0.41;86.21
4346;BME280;2186;49.866;7.986;2023-03-01T03:25:19;101225.56;;;0.40;85.07
4346;BME280;2186;49.866;7.986;2023-03-01T03:27:47;101213.97;;;0.28;86.17
4346;BME280;2186;49.866;7.986;2023-03-01T03:30:18;101218.59;;;0.40;85.01
4346;BME280;2186;49.866;7.986;2023-03-01T03:32:46;101227.06;;;0.30;85.64
4346;BME280;2186;49.866;7.986;2023-03-01T03:35:27;101220.19;;;0.34;86.24
4346;BME280;2186;49.866;7.986;2023-03-01T03:37:58;101213.13;;;0.29;85.52
4346;BME280;2186;49.866;7.986;2023-03-01T03:40:39;101214.34;;;0.42;85.58
4346;BME280;2186;49.866;7.986;2023-03-01T03:43:08;101222.03;;;0.38;84.98
4346;BME280;2186;49.866;7.986;2023-03-01T03:45:36;101214.06;;;0.33;86.17
4346;BME280;2186;49.866;7.986;2023-03-01T03:48:04;101210.59;;;0.66;85.04
4346;BME280;2186;49.866;7.986;2023-03-01T03:50:31;101209.88;;;0.71;84.04
4346;BME280;2186;49.866;7.986;2023-03-01T03:53:00;101199.72;;;0.83;84.06
4346;BME280;2186;49.866;7.986;2023-03-01T03:55:27;101195.13;;;1.09;82.38
4346;BME280;2186;49.866;7.986;2023-03-01T03:57:58;101199.84;;;0.88;83.35
4346;BME280;2186;49.866;7.986;2023-03-01T04:00:28;101186.75;;;0.88;83.33
4346;BME280;2186;49.866;7.986;2023-03-01T04:02:55;101183.31;;;0.91;83.25
4346;BME280;2186;49.866;7.986;2023-03-01T04:05:23;101176.69;;;1.05;83.08
4346;BME280;2186;49.866;7.986;2023-03-01T04:07:49;101175.63;;;0.97;82.98
4346;BME280;2186;49.866;7.986;2023-03-01T04:10:32;101172.38;;;1.07;82.25
4346;BME280;2186;49.866;7.986;2023-03-01T04:12:59;101179.41;;;1.09;82.82
4346;BME280;2186;49.866;7.986;2023-03-01T04:15:26;101180.06;;;0.99;83.44
4346;BME280;2186;49.866;7.986;2023-03-01T04:17:54;101167.56;;;0.87;83.27
4346;BME280;2186;49.866;7.986;2023-03-01T04:20:26;101177.38;;;0.96;83.59
4346;BME280;2186;49.866;7.986;2023-03-01T04:22:58;101190.31;;;0.92;83.04
4346;BME280;2186;49.866;7.986;2023-03-01T04:25:25;101193.47;;;1.13;82.08
4346;BME280;2186;49.866;7.986;2023-03-01T04:27:52;101185.75;;;1.19;81.41
4346;BME280;2186;49.866;7.986;2023-03-01T04:30:18;101188.09;;;1.07;82.19
4346;BME280;2186;49.866;7.986;2023-03-01T04:32:45;101189.47;;;1.27;81.76
4346;BME280;2186;49.866;7.986;2023-03-01T04:35:11;101188.28;;;1.14;81.07
4346;BME280;2186;49.866;7.986;2023-03-01T04:37:38;101196.41;;;1.25;81.61
4346;BME280;2186;49.866;7.986;2023-03-01T04:40:05;101191.75;;;1.13;81.41
4346;BME280;2186;49.866;7.986;2023-03-01T04:42:42;101187.34;;;1.11;82.65
4346;BME280;2186;49.866;7.986;2023-03-01T04:45:09;101195.91;;;1.05;82.24
4346;BME280;2186;49.866;7.986;2023-03-01T04:47:43;101185.16;;;0.95;83.46
4346;BME280;2186;49.866;7.986;2023-03-01T04:50:16;101192.06;;;0.91;83.27
4346;BME280;2186;49.866;7.986;2023-03-01T04:52:43;101204.13;;;0.84;83.67
4346;BME280;2186;49.866;7.986;2023-03-01T04:55:10;101194.16;;;0.70;83.48
4346;BME280;2186;49.866;7.986;2023-03-01T04:57:37;101187.28;;;0.75;84.35
4346;BME280;2186;49.866;7.986;2023-03-01T05:00:07;101189.69;;;0.67;84.61
4346;BME280;2186;49.866;7.986;2023-03-01T05:05:39;101186.28;;;0.70;84.36
4346;BME280;2186;49.866;7.986;2023-03-01T05:08:07;101184.69;;;0.75;84.10
4346;BME280;2186;49.866;7.986;2023-03-01T05:10:35;101180.25;;;0.72;84.51
4346;BME280;2186;49.866;7.986;2023-03-01T05:13:02;101189.59;;;0.63;84.13
4346;BME280;2186;49.866;7.986;2023-03-01T05:15:31;101188.59;;;0.57;84.75
4346;BME280;2186;49.866;7.986;2023-03-01T05:17:59;101185.16;;;0.60;83.94
4346;BME280;2186;49.866;7.986;2023-03-01T05:20:26;101181.25;;;0.44;85.28
4346;BME280;2186;49.866;7.986;2023-03-01T05:22:56;101175.19;;;0.45;85.17
4346;BME280;2186;49.866;7.986;2023-03-01T05:25:23;101183.91;;;0.46;84.44
4346;BME280;2186;49.866;7.986;2023-03-01T05:27:50;101183.66;;;0.37;84.97
4346;BME280;2186;49.866;7.986;2023-03-01T05:30:17;101192.47;;;0.40;85.76
4346;BME280;2186;49.866;7.986;2023-03-01T05:32:48;101186.25;;;0.35;85.58
4346;BME280;2186;49.866;7.986;2023-03-01T05:35:17;101187.31;;;0.12;86.02
4346;BME280;2186;49.866;7.986;2023-03-01T05:37:45;101188.47;;;0.21;86.19
4346;BME280;2186;49.866;7.986;2023-03-01T05:40:14;101183.28;;;0.23;86.67
4346;BME280;2186;49.866;7.986;2023-03-01T05:42:53;101181.31;;;0.14;86.59
4346;BME280;2186;49.866;7.986;2023-03-01T05:45:22;101177.88;;;0.15;85.85
4346;BME280;2186;49.866;7.986;2023-03-01T05:47:50;101187.16;;;0.06;86.63
4346;BME280;2186;49.866;7.986;2023-03-01T05:50:22;101183.56;;;0.01;87.18
4346;BME280;2186;49.866;7.986;2023-03-01T05:52:51;101178.56;;;0.10;86.74
4346;BME280;2186;49.866;7.986;2023-03-01T05:55:20;101182.81;;;0.06;87.72
4346;BME280;2186;49.866;7.986;2023-03-01T05:57:47;101188.00;;;0.05;87.25
4346;BME280;2186;49.866;7.986;2023-03-01T06:00:15;101188.31;;;0.15;87.41
4346;BME280;2186;49.866;7.986;2023-03-01T06:02:43;101191.16;;;-0.07;87.76
4346;BME280;2186;49.866;7.986;2023-03-01T06:05:11;101193.81;;;-0.06;87.72
4346;BME280;2186;49.866;7.986;2023-03-01T06:07:37;101186.97;;;-0.01;88.12
4346;BME280;2186;49.866;7.986;2023-03-01T06:10:05;101184.75;;;0.13;87.05
4346;BME280;2186;49.866;7.986;2023-03-01T06:12:34;101175.03;;;0.08;86.51
4346;BME280;2186;49.866;7.986;2023-03-01T06:15:01;101176.63;;;0.03;87.50
4346;BME280;2186;49.866;7.986;2023-03-01T06:17:33;101186.09;;;-0.01;88.13
4346;BME280;2186;49.866;7.986;2023-03-01T06:20:05;101187.78;;;-0.03;87.63
4346;BME280;2186;49.866;7.986;2023-03-01T06:22:32;101186.81;;;-0.07;87.68
4346;BME280;2186;49.866;7.986;2023-03-01T06:24:58;101180.59;;;-0.12;88.27
4346;BME280;2186;49.866;7.986;2023-03-01T06:27:25;101186.78;;;-0.08;87.78
4346;BME280;2186;49.866;7.986;2023-03-01T06:29:52;101180.69;;;-0.07;88.18
4346;BME280;2186;49.866;7.986;2023-03-01T06:32:19;101182.00;;;-0.23;88.33
4346;BME280;2186;49.866;7.986;2023-03-01T06:34:46;101177.69;;;-0.21;88.80
4346;BME280;2186;49.866;7.986;2023-03-01T06:37:12;101178.81;;;-0.13;88.89
4346;BME280;2186;49.866;7.986;2023-03-01T06:39:38;101168.75;;;0.01;88.90
4346;BME280;2186;49.866;7.986;2023-03-01T06:42:05;101179.44;;;0.10;88.24
4346;BME280;2186;49.866;7.986;2023-03-01T06:44:33;101178.88;;;0.20;87.24
4346;BME280;2186;49.866;7.986;2023-03-01T06:46:59;101165.34;;;0.37;87.35
4346;BME280;2186;49.866;7.986;2023-03-01T06:49:26;101168.47;;;0.89;86.30
4346;BME280;2186;49.866;7.986;2023-03-01T06:51:52;101167.81;;;0.64;84.55
4346;BME280;2186;49.866;7.986;2023-03-01T06:54:19;101157.22;;;0.57;85.32
4346;BME280;2186;49.866;7.986;2023-03-01T06:56:48;101161.59;;;0.58;85.43
4346;BME280;2186;49.866;7.986;2023-03-01T06:59:16;101164.38;;;0.66;84.95
4346;BME280;2186;49.866;7.986;2023-03-01T07:01:42;101157.66;;;0.76;84.88
4346;BME280;2186;49.866;7.986;2023-03-01T07:04:11;101160.38;;;0.80;84.11
4346;BME280;2186;49.866;7.986;2023-03-01T07:06:37;101165.78;;;0.86;84.01
4346;BME280;2186;49.866;7.986;2023-03-01T07:09:04;101159.78;;;0.91;84.01
4346;BME280;2186;49.866;7.986;2023-03-01T07:11:30;101162.75;;;1.06;83.94
4346;BME280;2186;49.866;7.986;2023-03-01T07:13:56;101164.72;;;1.14;82.98
4346;BME280;2186;49.866;7.986;2023-03-01T07:16:24;101167.44;;;1.19;82.73
4346;BME280;2186;49.866;7.986;2023-03-01T07:18:51;101164.88;;;1.22;82.69
4346;BME280;2186;49.866;7.986;2023-03-01T07:21:17;101160.59;;;1.24;82.70
4346;BME280;2186;49.866;7.986;2023-03-01T07:23:43;101164.28;;;1.34;82.59
4346;BME280;2186;49.866;7.986;2023-03-01T07:26:13;101154.03;;;1.43;82.01
4346;BME280;2186;49.866;7.986;2023-03-01T07:28:39;101154.25;;;1.52;81.43
4346;BME280;2186;49.866;7.986;2023-03-01T07:31:06;101162.22;;;1.58;80.48
4346;BME280;2186;49.866;7.986;2023-03-01T07:33:32;101145.03;;;1.71;81.62
4346;BME280;2186;49.866;7.986;2023-03-01T07:36:01;101147.03;;;1.83;80.88
4346;BME280;2186;49.866;7.986;2023-03-01T07:38:28;101141.19;;;1.97;79.83
4346;BME280;2186;49.866;7.986;2023-03-01T07:41:02;101140.63;;;2.12;79.88
4346;BME280;2186;49.866;7.986;2023-03-01T07:43:30;101136.31;;;2.16;79.02
4346;BME280;2186;49.866;7.986;2023-03-01T07:46:00;101144.00;;;2.06;79.15
4346;BME280;2186;49.866;7.986;2023-03-01T07:48:28;101142.13;;;2.01;78.19
4346;BME280;2186;49.866;7.986;2023-03-01T07:50:58;101138.63;;;2.00;77.89
4346;BME280;2186;49.866;7.986;2023-03-01T07:53:25;101142.31;;;2.08;78.02
4346;BME280;2186;49.866;7.986;2023-03-01T07:56:06;101134.06;;;2.34;78.34
4346;BME280;2186;49.866;7.986;2023-03-01T07:58:37;101142.72;;;2.31;76.90
4346;BME280;2186;49.866;7.986;2023-03-01T08:01:06;101139.50;;;2.46;76.87
4346;BME280;2186;49.866;7.986;2023-03-01T08:03:33;101131.97;;;2.66;76.67
4346;BME280;2186;49.866;7.986;2023-03-01T08:06:01;101135.56;;;2.71;75.94
4346;BME280;2186;49.866;7.986;2023-03-01T08:08:27;101135.44;;;2.62;74.61
4346;BME280;2186;49.866;7.986;2023-03-01T08:11:01;101133.56;;;2.56;75.57
4346;BME280;2186;49.866;7.986;2023-03-01T08:13:29;101122.56;;;2.79;74.00
4346;BME280;2186;49.866;7.986;2023-03-01T08:16:01;101131.50;;;2.90;74.05
4346;BME280;2186;49.866;7.986;2023-03-01T08:18:28;101124.66;;;3.01;74.64
4346;BME280;2186;49.866;7.986;2023-03-01T08:20:54;101130.72;;;2.97;73.70
4346;BME280;2186;49.866;7.986;2023-03-01T08:23:21;101135.16;;;3.01;72.84
4346;BME280;2186;49.866;7.986;2023-03-01T08:25:48;101134.16;;;2.91;73.10
4346;BME280;2186;49.866;7.986;2023-03-01T08:28:14;101129.22;;;3.13;73.22
4346;BME280;2186;49.866;7.986;2023-03-01T08:30:40;101130.88;;;3.06;72.24
4346;BME280;2186;49.866;7.986;2023-03-01T08:33:07;101118.75;;;3.14;73.29
4346;BME280;2186;49.866;7.986;2023-03-01T08:35:33;101122.34;;;3.19;72.78
4346;BME280;2186;49.866;7.986;2023-03-01T08:38:00;101117.13;;;3.22;72.88
4346;BME280;2186;49.866;7.986;2023-03-01T08:40:26;101118.78;;;3.16;72.53
4346;BME280;2186;49.866;7.986;2023-03-01T08:42:52;101121.38;;;3.14;72.24
4346;BME280;2186;49.866;7.986;2023-03-01T08:45:19;101119.72;;;3.19;72.02
4346;BME280;2186;49.866;7.986;2023-03-01T08:47:45;101118.03;;;3.26;71.64
4346;BME280;2186;49.866;7.986;2023-03-01T08:50:12;101112.88;;;3.31;71.00
4346;BME280;2186;49.866;7.986;2023-03-01T08:52:38;101116.38;;;3.30;71.31
4346;BME280;2186;49.866;7.986;2023-03-01T08:55:05;101122.53;;;3.33;71.14
4346;BME280;2186;49.866;7.986;2023-03-01T08:57:32;101115.53;;;3.34;70.57
4346;BME280;2186;49.866;7.986;2023-03-01T08:59:58;101095.59;;;3.48;70.31
4346;BME280;2186;49.866;7.986;2023-03-01T09:02:24;101114.72;;;3.39;70.23
4346;BME280;2186;49.866;7.986;2023-03-01T09:04:51;101098.34;;;3.57;70.29
4346;BME280;2186;49.866;7.986;2023-03-01T09:07:17;101092.25;;;3.63;70.55
4346;BME280;2186;49.866;7.986;2023-03-01T09:09:44;101093.50;;;3.92;69.55
4346;BME280;2186;49.866;7.986;2023-03-01T09:12:10;101088.16;;;3.84;68.64
4346;BME280;2186;49.866;7.986;2023-03-01T09:14:37;101079.22;;;3.70;68.95
4346;BME280;2186;49.866;7.986;2023-03-01T09:17:04;101086.59;;;4.02;69.39
4346;BME280;2186;49.866;7.986;2023-03-01T09:19:31;101079.41;;;3.84;68.27
4346;BME280;2186;49.866;7.986;2023-03-01T09:21:57;101083.97;;;4.02;68.15
4346;BME280;2186;49.866;7.986;2023-03-01T09:24:24;101084.13;;;4.15;68.02
4346;BME280;2186;49.866;7.986;2023-03-01T09:26:54;101090.22;;;4.13;67.91
4346;BME280;2186;49.866;7.986;2023-03-01T09:29:22;101081.47;;;4.14;68.55
4346;BME280;2186;49.866;7.986;2023-03-01T09:31:49;101084.09;;;4.14;67.70
4346;BME280;2186;49.866;7.986;2023-03-01T09:34:15;101080.75;;;4.30;67.90
4346;BME280;2186;49.866;7.986;2023-03-01T09:36:45;101084.25;;;4.29;66.72
4346;BME280;2186;49.866;7.986;2023-03-01T09:39:11;101076.47;;;4.40;66.29
4346;BME280;2186;49.866;7.986;2023-03-01T09:41:49;101080.78;;;4.36;66.50
4346;BME280;2186;49.866;7.986;2023-03-01T09:45:16;101073.00;;;4.47;67.13
4346;BME280;2186;49.866;7.986;2023-03-01T09:47:35;101074.84;;;4.56;66.79
4346;BME280;2186;49.866;7.986;2023-03-01T09:50:13;101075.72;;;4.55;66.01
4346;BME280;2186;49.866;7.986;2023-03-01T09:52:52;101073.13;;;4.64;66.25
4346;BME280;2186;49.866;7.986;2023-03-01T09:58:18;101067.19;;;4.89;65.91
4346;BME280;2186;49.866;7.986;2023-03-01T10:00:50;101064.53;;;4.85;65.59
4346;BME280;2186;49.866;7.986;2023-03-01T10:08:38;101068.16;;;5.00;62.52
4346;BME280;2186;49.866;7.986;2023-03-01T10:11:28;101056.88;;;5.21;63.96
4346;BME280;2186;49.866;7.986;2023-03-01T10:14:06;101053.25;;;5.05;63.08
4346;BME280;2186;49.866;7.986;2023-03-01T10:16:42;101045.41;;;5.18;62.32
4346;BME280;2186;49.866;7.986;2023-03-01T10:19:14;101052.56;;;5.45;62.89
4346;BME280;2186;49.866;7.986;2023-03-01T10:21:45;101047.28;;;5.42;61.75
4346;BME280;2186;49.866;7.986;2023-03-01T10:24:14;101039.41;;;5.48;62.56
4346;BME280;2186;49.866;7.986;2023-03-01T10:29:15;101034.06;;;5.32;61.75
4346;BME280;2186;49.866;7.986;2023-03-01T10:31:47;101029.88;;;5.79;61.33
4346;BME280;2186;49.866;7.986;2023-03-01T10:34:20;101020.16;;;5.72;60.21
4346;BME280;2186;49.866;7.986;2023-03-01T10:36:51;101011.31;;;5.51;60.31
4346;BME280;2186;49.866;7.986;2023-03-01T10:39:24;101014.81;;;5.50;61.03
4346;BME280;2186;49.866;7.986;2023-03-01T10:42:07;101015.75;;;5.74;61.56
4346;BME280;2186;49.866;7.986;2023-03-01T10:44:47;101008.75;;;5.80;60.66
4346;BME280;2186;49.866;7.986;2023-03-01T10:49:55;101003.44;;;5.67;60.56
4346;BME280;2186;49.866;7.986;2023-03-01T10:52:25;100993.88;;;5.96;60.72
4346;BME280;2186;49.866;7.986;2023-03-01T10:57:41;100994.69;;;5.84;60.20
4346;BME280;2186;49.866;7.986;2023-03-01T11:05:26;100989.47;;;5.93;59.17
4346;BME280;2186;49.866;7.986;2023-03-01T11:07:56;100986.84;;;6.06;61.05
4346;BME280;2186;49.866;7.986;2023-03-01T11:10:32;100982.41;;;5.89;60.20
4346;BME280;2186;49.866;7.986;2023-03-01T11:13:07;100977.13;;;5.89;59.33
4346;BME280;2186;49.866;7.986;2023-03-01T11:15:34;100981.56;;;6.13;60.29
4346;BME280;2186;49.866;7.986;2023-03-01T11:18:02;100989.50;;;6.04;59.91
4346;BME280;2186;49.866;7.986;2023-03-01T11:20:39;100973.66;;;5.95;60.49
4346;BME280;2186;49.866;7.986;2023-03-01T11:23:10;100977.16;;;6.29;60.04
4346;BME280;2186;49.866;7.986;2023-03-01T11:25:59;100978.94;;;6.10;60.26
4346;BME280;2186;49.866;7.986;2023-03-01T11:28:28;100975.41;;;6.02;58.95
4346;BME280;2186;49.866;7.986;2023-03-01T11:36:10;100981.56;;;6.10;59.71
4346;BME280;2186;49.866;7.986;2023-03-01T11:38:42;100964.84;;;6.30;59.13
4346;BME280;2186;49.866;7.986;2023-03-01T11:41:18;100961.31;;;6.40;59.72
4346;BME280;2186;49.866;7.986;2023-03-01T11:43:52;100962.22;;;6.22;58.85
4346;BME280;2186;49.866;7.986;2023-03-01T11:49:17;100942.81;;;6.75;56.77
4346;BME280;2186;49.866;7.986;2023-03-01T11:55:08;100934.00;;;6.68;58.02
4346;BME280;2186;49.866;7.986;2023-03-01T12:03:30;100924.38;;;6.49;57.21
4346;BME280;2186;49.866;7.986;2023-03-01T12:39:51;100862.38;;;7.32;56.05
4346;BME280;2186;49.866;7.986;2023-03-01T12:42:35;100857.00;;;7.46;54.80
4346;BME280;2186;49.866;7.986;2023-03-01T12:47:53;100852.63;;;7.40;53.11
4346;BME280;2186;49.866;7.986;2023-03-01T12:50:34;100840.06;;;7.67;54.02
4346;BME280;2186;49.866;7.986;2023-03-01T12:53:02;100835.59;;;7.75;54.64
4346;BME280;2186;49.866;7.986;2023-03-01T12:55:33;100822.50;;;7.60;52.55
4346;BME280;2186;49.866;7.986;2023-03-01T13:00:45;100820.41;;;8.00;53.45
4346;BME280;2186;49.866;7.986;2023-03-01T13:03:25;100812.63;;;7.83;51.78
4346;BME280;2186;49.866;7.986;2023-03-01T13:06:12;100808.91;;;8.01;52.37
4346;BME280;2186;49.866;7.986;2023-03-01T13:09:05;100812.50;;;7.97;51.69
4346;BME280;2186;49.866;7.986;2023-03-01T13:11:41;100801.91;;;7.94;50.36
4346;BME280;2186;49.866;7.986;2023-03-01T13:16:47;100800.94;;;8.02;50.48
4346;BME280;2186;49.866;7.986;2023-03-01T13:21:48;100782.25;;;8.18;48.29
4346;BME280;2186;49.866;7.986;2023-03-01T13:24:33;100775.97;;;8.28;48.88
4346;BME280;2186;49.866;7.986;2023-03-01T13:29:54;100774.28;;;8.19;47.82
4346;BME280;2186;49.866;7.986;2023-03-01T13:32:26;100775.66;;;8.57;48.27
4346;BME280;2186;49.866;7.986;2023-03-01T13:37:44;100776.63;;;8.48;48.03
4346;BME280;2186;49.866;7.986;2023-03-01T13:42:47;100757.91;;;8.62;46.87
4346;BME280;2186;49.866;7.986;2023-03-01T13:45:36;100736.00;;;8.48;47.20
4346;BME280;2186;49.866;7.986;2023-03-01T13:48:16;100739.94;;;8.85;46.74
4346;BME280;2186;49.866;7.986;2023-03-01T13:50:51;100746.25;;;8.75;46.42
4346;BME280;2186;49.866;7.986;2023-03-01T13:53:21;100742.75;;;8.73;46.33
4346;BME280;2186;49.866;7.986;2023-03-01T13:55:58;100729.25;;;8.90;46.42
4346;BME280;2186;49.866;7.986;2023-03-01T13:58:30;100733.72;;;8.86;46.18
4346;BME280;2186;49.866;7.986;2023-03-01T14:01:03;100724.66;;;9.01;46.59
4346;BME280;2186;49.866;7.986;2023-03-01T14:03:32;100728.16;;;9.06;45.25
4346;BME280;2186;49.866;7.986;2023-03-01T14:06:12;100725.28;;;9.17;45.73
4346;BME280;2186;49.866;7.986;2023-03-01T14:08:44;100724.41;;;9.16;46.19
4346;BME280;2186;49.866;7.986;2023-03-01T14:20:16;100725.66;;;8.94;45.60
4346;BME280;2186;49.866;7.986;2023-03-01T14:22:43;100725.56;;;9.00;45.35
4346;BME280;2186;49.866;7.986;2023-03-01T14:25:24;100721.63;;;9.26;45.22
4346;BME280;2186;49.866;7.986;2023-03-01T14:28:02;100726.22;;;9.14;45.81
4346;BME280;2186;49.866;7.986;2023-03-01T14:30:35;100735.69;;;9.31;45.54
4346;BME280;2186;49.866;7.986;2023-03-01T14:33:05;100731.16;;;9.39;45.63
4346;BME280;2186;49.866;7.986;2023-03-01T14:35:35;100730.31;;;9.35;45.54
4346;BME280;2186;49.866;7.986;2023-03-01T14:38:02;100719.84;;;9.26;45.34
4346;BME280;2186;49.866;7.986;2023-03-01T14:40:32;100707.28;;;9.37;46.04
4346;BME280;2186;49.866;7.986;2023-03-01T14:43:00;100719.78;;;9.32;45.54
4346;BME280;2186;49.866;7.986;2023-03-01T14:45:29;100707.47;;;9.27;45.91
4346;BME280;2186;49.866;7.986;2023-03-01T14:48:00;100710.25;;;9.19;45.67
4346;BME280;2186;49.866;7.986;2023-03-01T14:50:30;100712.84;;;9.24;45.36
4346;BME280;2186;49.866;7.986;2023-03-01T14:52:59;100709.81;;;9.43;45.88
4346;BME280;2186;49.866;7.986;2023-03-01T14:57:53;100710.75;;;9.41;45.25
4346;BME280;2186;49.866;7.986;2023-03-01T15:00:23;100708.91;;;9.47;45.66
4346;BME280;2186;49.866;7.986;2023-03-01T15:02:52;100700.69;;;9.61;45.99
4346;BME280;2186;49.866;7.986;2023-03-01T15:05:25;100693.84;;;9.48;45.56
4346;BME280;2186;49.866;7.986;2023-03-01T15:07:54;100693.88;;;9.45;45.75
4346;BME280;2186;49.866;7.986;2023-03-01T15:10:23;100694.72;;;9.48;46.32
4346;BME280;2186;49.866;7.986;2023-03-01T15:12:50;100690.34;;;9.46;46.27
4346;BME280;2186;49.866;7.986;2023-03-01T15:17:56;100686.19;;;9.30;46.82
4346;BME280;2186;49.866;7.986;2023-03-01T15:20:26;100687.13;;;9.27;46.02
4346;BME280;2186;49.866;7.986;2023-03-01T15:22:56;100690.00;;;9.13;46.16
4346;BME280;2186;49.866;7.986;2023-03-01T15:25:27;100678.44;;;9.19;46.22
4346;BME280;2186;49.866;7.986;2023-03-01T15:27:56;100677.91;;;8.97;46.50
4346;BME280;2186;49.866;7.986;2023-03-01T15:30:35;100680.38;;;9.08;46.41